Time;durP1;ratioP1;P1;durP2;ratioP2;P2;SDS_P1;SDS_P2;PMS_P1;PMS_P2;Temp;Humidity;BMP_temperature;BMP_pressure;BME280_temperature;BME280_humidity;BME280_pressure;Samples;Min_cycle;Max_cycle;Signal;HPM_P1;HPM_P2
2022/10/11 05:20:06;;;;;;;;;;;;;;;5.21;100.00;100342.09;5438577;23;20345;-88
2022/10/11 05:22:31;;;;;;;;;;;;;;;5.15;100.00;100343.03;5002536;28;20021;-86
2022/10/11 05:24:56;;;;;;;;;;;;;;;5.10;100.00;100350.09;5001597;28;19924;-86
2022/10/11 05:27:21;;;;;;;;;;;;;;;5.13;100.00;100355.31;4984992;28;19918;-88
2022/10/11 05:29:47;;;;;;;;;;;;;;;5.06;100.00;100351.91;5001401;28;19918;-86
2022/10/11 05:32:17;;;;;;;;;;;;;;;5.04;100.00;100364.19;5002377;28;19923;-87
2022/10/11 05:34:52;;;;;;;;;;;;;;;5.06;100.00;100369.41;4983078;28;19965;-86
2022/10/11 05:37:18;;;;;;;;;;;;;;;5.08;100.00;100372.91;5000717;28;19921;-86
2022/10/11 05:39:43;;;;;;;;;;;;;;;5.01;100.00;100379.09;5002523;28;19928;-86
2022/10/11 05:42:09;;;;;;;;;;;;;;;5.00;100.00;100380.84;5002078;28;20300;-85
2022/10/11 05:44:34;;;;;;;;;;;;;;;5.01;100.00;100381.72;5001865;28;19971;-82
2022/10/11 05:46:59;;;;;;;;;;;;;;;5.03;100.00;100374.72;4984287;28;19918;-82
2022/10/11 05:49:24;;;;;;;;;;;;;;;4.99;100.00;100378.25;5000702;28;19924;-85
2022/10/11 05:51:50;;;;;;;;;;;;;;;5.00;100.00;100386.09;4984626;28;20024;-85
2022/10/11 05:54:15;;;;;;;;;;;;;;;5.07;100.00;100390.41;5002243;28;19964;-83
2022/10/11 05:56:40;;;;;;;;;;;;;;;5.07;100.00;100384.28;5002505;28;20292;-83
2022/10/11 05:59:05;;;;;;;;;;;;;;;5.03;100.00;100390.47;5002111;28;19914;-85
2022/10/11 06:01:31;;;;;;;;;;;;;;;5.06;100.00;100396.56;5001950;28;19921;-83
2022/10/11 06:03:56;;;;;;;;;;;;;;;5.00;100.00;100398.38;5000883;28;20001;-84
2022/10/11 06:06:22;;;;;;;;;;;;;;;5.03;100.00;100404.47;5002083;28;20012;-85
2022/10/11 06:08:47;;;;;;;;;;;;;;;5.03;100.00;100406.22;5002307;28;19925;-84
2022/10/11 06:11:24;;;;;;;;;;;;;;;5.03;100.00;100408.84;4984808;28;20372;-85
2022/10/11 06:13:51;;;;;;;;;;;;;;;5.06;100.00;100412.31;5002256;28;19940;-86
2022/10/11 06:16:16;;;;;;;;;;;;;;;5.03;100.00;100411.47;5002154;28;19948;-85
2022/10/11 06:18:42;;;;;;;;;;;;;;;5.00;100.00;100416.75;5000480;28;20000;-85
2022/10/11 06:21:07;;;;;;;;;;;;;;;5.01;100.00;100415.84;4990786;28;19932;-85
2022/10/11 06:23:32;;;;;;;;;;;;;;;5.00;100.00;100415.00;4994530;28;20261;-85
2022/10/11 06:25:58;;;;;;;;;;;;;;;5.03;100.00;100427.25;5011763;28;19917;-85
2022/10/11 06:28:25;;;;;;;;;;;;;;;4.98;100.00;100426.38;5011754;28;19922;-84
2022/10/11 06:30:50;;;;;;;;;;;;;;;4.97;100.00;100427.28;5011039;28;19925;-85
2022/10/11 06:33:15;;;;;;;;;;;;;;;5.05;100.00;100434.19;4997899;28;19921;-85
2022/10/11 06:35:41;;;;;;;;;;;;;;;5.01;100.00;100429.00;5014355;28;19939;-85
2022/10/11 06:38:06;;;;;;;;;;;;;;;4.96;100.00;100439.53;4997814;28;19995;-87
2022/10/11 06:40:31;;;;;;;;;;;;;;;4.96;100.00;100446.56;4997940;28;20332;-86
2022/10/11 06:42:56;;;;;;;;;;;;;;;4.96;100.00;100447.41;4997036;28;19924;-86
2022/10/11 06:45:22;;;;;;;;;;;;;;;4.98;100.00;100456.19;4997701;28;20277;-86
2022/10/11 06:47:47;;;;;;;;;;;;;;;5.00;100.00;100450.91;5015414;28;19921;-86
2022/10/11 06:50:12;;;;;;;;;;;;;;;4.95;100.00;100464.06;5013007;28;19917;-86
2022/10/11 06:52:38;;;;;;;;;;;;;;;4.95;100.00;100460.59;5015311;28;19921;-86
2022/10/11 06:55:03;;;;;;;;;;;;;;;5.00;100.00;100466.66;5014349;28;20388;-86
2022/10/11 06:57:28;;;;;;;;;;;;;;;5.01;100.00;100468.38;5015131;28;19977;-88
2022/10/11 06:59:54;;;;;;;;;;;;;;;5.04;100.00;100473.63;5014558;28;20399;-87
2022/10/11 07:02:19;;;;;;;;;;;;;;;4.99;100.00;100475.41;5015001;28;19968;-87
2022/10/11 07:04:44;;;;;;;;;;;;;;;5.02;100.00;100480.66;5013890;28;20430;-87
2022/10/11 07:07:11;;;;;;;;;;;;;;;5.01;100.00;100486.78;5014904;28;20349;-86
2022/10/11 07:09:37;;;;;;;;;;;;;;;5.00;100.00;100490.31;5015024;28;20292;-86
2022/10/11 07:12:02;;;;;;;;;;;;;;;4.95;100.00;100486.84;4996918;28;19928;-86
2022/10/11 07:14:27;;;;;;;;;;;;;;;4.93;100.00;100492.13;5014961;28;19922;-86
2022/10/11 07:16:52;;;;;;;;;;;;;;;4.94;100.00;100490.34;4997156;28;19923;-85
2022/10/11 07:19:18;;;;;;;;;;;;;;;4.93;100.00;100499.09;4995741;28;19922;-86
2022/10/11 07:21:43;;;;;;;;;;;;;;;4.98;100.00;100497.31;4996907;28;20009;-87
2022/10/11 07:24:08;;;;;;;;;;;;;;;4.95;100.00;100498.22;4997064;28;20257;-86
2022/10/11 07:55:00;;;;;;;;;;;;;;;7.58;100.00;100495.53;5149892;23;20288;-87
2022/10/11 07:57:28;;;;;;;;;;;;;;;7.98;100.00;100495.59;4956991;28;19926;-86
2022/10/11 07:59:53;;;;;;;;;;;;;;;6.49;100.00;100491.22;4957419;28;20288;-85
2022/10/11 08:02:19;;;;;;;;;;;;;;;5.99;100.00;100503.31;4954842;28;19918;-85
2022/10/11 08:04:44;;;;;;;;;;;;;;;5.73;100.00;100508.84;4962953;28;19922;-85
2022/10/11 08:07:09;;;;;;;;;;;;;;;5.58;100.00;100508.09;4965698;28;19914;-88
2022/10/11 08:09:34;;;;;;;;;;;;;;;5.48;100.00;100509.09;4950242;28;19965;-87
2022/10/11 08:12:00;;;;;;;;;;;;;;;5.38;100.00;100510.97;4954655;28;19922;-85
2022/10/11 08:14:25;;;;;;;;;;;;;;;6.10;100.00;100518.97;4973971;28;19926;-77
2022/10/11 08:16:50;;;;;;;;;;;;;;;6.65;100.00;100512.94;4956525;28;20006;-83
2022/10/11 08:19:18;;;;;;;;;;;;;;;5.96;100.00;100514.72;4955280;28;19914;-84
2022/10/11 08:21:51;;;;;;;;;;;;;;;5.89;100.00;100514.78;4952516;28;19926;-88
2022/10/11 08:24:19;;;;;;;;;;;;;;;5.80;100.00;100514.00;4951044;28;19944;-85
2022/10/11 08:26:45;;;;;;;;;;;;;;;6.04;100.00;100524.28;4961135;28;19937;-84
2022/10/11 08:29:10;;;;;;;;;;;;;;;7.68;100.00;100518.19;4970965;28;20361;-84
2022/10/11 08:31:35;;;;;;;;;;;;;;;7.22;100.00;100519.03;4972332;28;19918;-84
2022/10/11 08:34:01;;;;;;;;;;;;;;;6.36;100.00;100524.72;4964497;28;20365;-84
2022/10/11 08:36:32;;;;;;;;;;;;;;;6.13;100.00;100517.16;4964254;28;19973;-82
2022/10/11 08:39:34;;;;;;;;;;;;;;;5.91;100.00;100527.03;4948479;28;19922;-91
2022/10/11 08:42:01;;;;;;;;;;;;;;;5.77;100.00;100514.03;4933638;28;19992;-84
2022/10/11 08:44:34;;;;;;;;;;;;;;;5.70;100.00;100524.66;4954972;28;19926;-83
2022/10/11 08:47:01;;;;;;;;;;;;;;;5.72;100.00;100520.25;4947077;28;20023;-83
2022/10/11 08:49:28;;;;;;;;;;;;;;;5.61;100.00;100526.47;4971756;28;20013;-84
2022/10/11 08:52:01;;;;;;;;;;;;;;;5.55;100.00;100517.78;4973700;28;19922;-83
2022/10/11 08:54:49;;;;;;;;;;;;;;;5.51;100.00;100513.47;4950801;28;19926;-84
2022/10/11 08:57:17;;;;;;;;;;;;;;;5.51;100.00;100516.09;4946932;28;20016;-84
2022/10/11 08:59:47;;;;;;;;;;;;;;;5.50;100.00;100516.97;4971617;28;19972;-84
2022/10/11 09:02:28;;;;;;;;;;;;;;;5.43;100.00;100516.19;4956338;28;20293;-90
2022/10/11 09:04:56;;;;;;;;;;;;;;;5.38;100.00;100515.34;4947121;28;19977;-84
2022/10/11 09:07:22;;;;;;;;;;;;;;;5.36;100.00;100514.47;4951143;28;20013;-85
2022/10/11 09:09:59;;;;;;;;;;;;;;;5.35;100.00;100513.63;4954865;28;20017;-84
2022/10/11 09:12:24;;;;;;;;;;;;;;;5.39;100.00;100519.72;4964047;28;19933;-83
2022/10/11 09:14:56;;;;;;;;;;;;;;;5.44;100.00;100517.91;4954840;28;19926;-83
2022/10/11 09:17:40;;;;;;;;;;;;;;;5.35;100.00;100511.00;4969382;28;19914;-84
2022/10/11 09:20:11;;;;;;;;;;;;;;;5.33;100.00;100512.78;4954612;28;20373;-84
2022/10/11 09:22:56;;;;;;;;;;;;;;;5.32;100.00;100510.16;4970313;28;19926;-84
2022/10/11 09:25:24;;;;;;;;;;;;;;;5.28;100.00;100518.06;4955477;28;19922;-84
2022/10/11 09:28:12;;;;;;;;;;;;;;;5.27;100.00;100510.19;4973005;28;20377;-86
2022/10/11 09:30:45;;;;;;;;;;;;;;;5.30;100.00;100501.41;4959015;28;19968;-83
2022/10/11 09:33:17;;;;;;;;;;;;;;;5.27;100.00;100505.81;4942708;28;20061;-84
2022/10/11 09:35:45;;;;;;;;;;;;;;;5.51;100.00;100505.59;4952208;28;19972;-84
2022/10/11 09:38:30;;;;;;;;;;;;;;;5.46;100.00;100505.63;4948881;28;20013;-82
2022/10/11 09:40:59;;;;;;;;;;;;;;;5.28;100.00;100497.03;4915363;28;19969;-84
2022/10/11 09:43:24;;;;;;;;;;;;;;;5.26;100.00;100503.19;4952466;28;19929;-84
2022/10/11 09:45:49;;;;;;;;;;;;;;;5.25;100.00;100502.31;4942795;28;19944;-84
2022/10/11 09:48:18;;;;;;;;;;;;;;;5.24;100.00;100502.34;4952260;28;19956;-83
2022/10/11 09:50:47;;;;;;;;;;;;;;;5.48;100.00;100497.72;4943850;28;20285;-83
2022/10/11 09:53:13;;;;;;;;;;;;;;;5.42;100.00;100503.91;4952012;28;20749;-83
2022/10/11 09:55:39;;;;;;;;;;;;;;;5.31;100.00;100506.63;4966646;28;19985;-84
2022/10/11 09:58:22;;;;;;;;;;;;;;;5.35;100.00;100507.50;4946624;28;19929;-83
2022/10/11 10:00:55;;;;;;;;;;;;;;;5.30;100.00;100504.91;4970190;28;19922;-83
2022/10/11 10:03:28;;;;;;;;;;;;;;;5.22;100.00;100507.59;4965979;28;19968;-84
2022/10/11 10:06:03;;;;;;;;;;;;;;;5.31;100.00;100500.53;4969940;28;20281;-84
2022/10/11 10:08:28;;;;;;;;;;;;;;;5.52;100.00;100508.19;4962604;28;19976;-84
2022/10/11 10:10:59;;;;;;;;;;;;;;;5.40;100.00;100503.91;4948926;28;20361;-84
2022/10/11 10:13:33;;;;;;;;;;;;;;;5.54;100.00;100502.94;4949507;28;19922;-83
2022/10/11 10:15:59;;;;;;;;;;;;;;;5.43;100.00;100505.66;4954005;28;20316;-84
2022/10/11 10:18:27;;;;;;;;;;;;;;;5.36;100.00;100504.84;4956957;28;19929;-84
2022/10/11 10:21:01;;;;;;;;;;;;;;;5.22;100.00;100512.00;4954587;28;19922;-85
2022/10/11 10:23:29;;;;;;;;;;;;;;;5.22;100.00;100515.50;4968086;28;20293;-84
2022/10/11 10:26:14;;;;;;;;;;;;;;;5.36;100.00;100501.34;4972659;28;19930;-84
2022/10/11 10:29:00;;;;;;;;;;;;;;;5.30;100.00;100510.16;4955195;28;19926;-85
2022/10/11 10:31:31;;;;;;;;;;;;;;;5.42;100.00;100514.41;4947121;28;19933;-83
2022/10/11 10:33:57;;;;;;;;;;;;;;;5.48;100.00;100509.09;4973464;28;20391;-84
2022/10/11 10:36:26;;;;;;;;;;;;;;;5.31;100.00;100503.16;4957707;28;20013;-84
2022/10/11 10:39:01;;;;;;;;;;;;;;;5.30;100.00;100498.75;4971614;28;19930;-85
2022/10/11 10:41:26;;;;;;;;;;;;;;;5.21;100.00;100500.59;4966850;28;20008;-86
2022/10/11 10:43:54;;;;;;;;;;;;;;;5.25;100.00;100490.97;4950937;28;20028;-84
2022/10/11 10:46:40;;;;;;;;;;;;;;;5.15;100.00;100499.78;4958691;28;20289;-83
2022/10/11 10:49:18;;;;;;;;;;;;;;;5.23;100.00;100504.09;4958556;28;19929;-85
2022/10/11 10:52:04;;;;;;;;;;;;;;;5.22;100.00;100491.84;4958473;28;19985;-84
2022/10/11 10:54:48;;;;;;;;;;;;;;;5.20;100.00;100493.63;4972117;28;19922;-85
2022/10/11 10:58:09;;;;;;;;;;;;;;;5.24;100.00;100491.84;4945328;28;20373;-84
2022/10/11 11:00:18;;;;;;;;;;;;;;;5.20;100.00;100490.09;4953461;28;19921;-84
2022/10/11 11:02:59;;;;;;;;;;;;;;;5.16;100.00;100491.03;4946813;28;19937;-84
2022/10/11 11:05:40;;;;;;;;;;;;;;;5.16;100.00;100486.66;4963879;28;19922;-85
2022/10/11 11:08:11;;;;;;;;;;;;;;;5.19;100.00;100489.25;4973045;28;20009;-85
2022/10/11 11:10:54;;;;;;;;;;;;;;;5.20;100.00;100483.13;4974038;28;20012;-83
2022/10/11 11:13:28;;;;;;;;;;;;;;;5.17;100.00;100482.25;4948932;28;20424;-83
2022/10/11 11:16:05;;;;;;;;;;;;;;;5.17;100.00;100488.41;4959187;28;20275;-85
2022/10/11 11:18:40;;;;;;;;;;;;;;;5.10;100.00;100489.31;4948615;28;19918;-83
2022/10/11 11:21:09;;;;;;;;;;;;;;;5.14;100.00;100493.69;4948471;28;19922;-84
2022/10/11 11:23:37;;;;;;;;;;;;;;;5.12;100.00;100487.53;4948307;28;19965;-84
2022/10/11 11:26:02;;;;;;;;;;;;;;;5.13;100.00;100481.41;4957496;28;19957;-85
2022/10/11 11:28:51;;;;;;;;;;;;;;;5.16;100.00;100483.16;4955842;28;20393;-84
2022/10/11 11:31:35;;;;;;;;;;;;;;;5.12;100.00;100484.91;4926693;28;19980;-86
2022/10/11 11:34:10;;;;;;;;;;;;;;;5.14;100.00;100482.28;4954098;28;19977;-84
2022/10/11 11:37:05;;;;;;;;;;;;;;;5.33;100.00;100469.84;4969541;28;19922;-84
2022/10/11 11:39:42;;;;;;;;;;;;;;;5.20;100.00;100467.34;4932864;28;20361;-85
2022/10/11 11:42:07;;;;;;;;;;;;;;;5.28;100.00;100470.75;4965518;28;20277;-84
2022/10/11 11:44:44;;;;;;;;;;;;;;;5.37;100.00;100469.78;4970978;28;20009;-84
2022/10/11 11:47:22;;;;;;;;;;;;;;;5.37;100.00;100461.03;4956494;28;20285;-83
2022/10/11 11:49:57;;;;;;;;;;;;;;;5.24;100.00;100461.16;4951489;28;19945;-84
2022/10/11 11:52:25;;;;;;;;;;;;;;;5.13;100.00;100456.91;4973586;28;20036;-85
2022/10/11 11:54:55;;;;;;;;;;;;;;;5.19;100.00;100456.84;4955467;28;19926;-86
2022/10/11 11:57:34;;;;;;;;;;;;;;;5.16;100.00;100454.25;4957341;28;19977;-84
2022/10/11 12:00:03;;;;;;;;;;;;;;;5.15;100.00;100448.09;4971626;28;19930;-84
2022/10/11 12:02:28;;;;;;;;;;;;;;;5.15;100.00;100450.75;4968350;28;19933;-83
2022/10/11 12:04:53;;;;;;;;;;;;;;;5.28;100.00;100452.38;4967516;28;19965;-84
2022/10/11 12:07:21;;;;;;;;;;;;;;;5.18;100.00;100440.19;4967481;28;19929;-84
2022/10/11 12:09:50;;;;;;;;;;;;;;;5.18;100.00;100436.72;4947114;28;19969;-83
2022/10/11 12:12:27;;;;;;;;;;;;;;;5.17;100.00;100443.72;4969493;28;20017;-84
2022/10/11 12:15:08;;;;;;;;;;;;;;;5.08;100.00;100428.91;4968971;28;19918;-85
2022/10/11 12:17:57;;;;;;;;;;;;;;;5.16;100.00;100430.63;4973144;28;19922;-85
2022/10/11 12:20:25;;;;;;;;;;;;;;;5.25;100.00;100427.91;4935855;28;20305;-85
2022/10/11 12:23:01;;;;;;;;;;;;;;;5.16;100.00;100426.22;4967143;28;19934;-84
2022/10/11 12:25:27;;;;;;;;;;;;;;;5.18;100.00;100423.56;4954595;28;19929;-85
2022/10/11 12:27:56;;;;;;;;;;;;;;;5.11;100.00;100425.41;4961476;28;19922;-85
2022/10/11 12:30:40;;;;;;;;;;;;;;;5.17;100.00;100417.47;4938952;28;20437;-84
2022/10/11 12:33:12;;;;;;;;;;;;;;;5.09;100.00;100406.16;4960840;28;19922;-85
2022/10/11 12:35:41;;;;;;;;;;;;;;;5.13;100.00;100413.13;4954852;28;19969;-84
2022/10/11 12:38:21;;;;;;;;;;;;;;;5.08;100.00;100407.91;4952907;28;19937;-85
2022/10/11 12:40:48;;;;;;;;;;;;;;;5.25;100.00;100407.72;4970930;28;20417;-85
2022/10/11 12:43:13;;;;;;;;;;;;;;;5.18;100.00;100402.56;4952632;28;20381;-85
2022/10/11 12:45:40;;;;;;;;;;;;;;;5.17;100.00;100404.31;4962411;28;19929;-85
2022/10/11 12:48:24;;;;;;;;;;;;;;;5.13;100.00;100399.13;4943890;28;19922;-85
2022/10/11 12:51:27;;;;;;;;;;;;;;;5.13;100.00;100399.97;4962458;28;19918;-84
2022/10/11 12:54:18;;;;;;;;;;;;;;;5.07;100.00;100398.31;4891300;29;20402;-85
2022/10/11 12:57:02;;;;;;;;;;;;;;;5.09;100.00;100395.66;4879048;29;19927;-85
2022/10/11 12:59:33;;;;;;;;;;;;;;;5.12;100.00;100400.84;4952881;28;19922;-88
2022/10/11 13:01:58;;;;;;;;;;;;;;;5.13;100.00;100392.09;4953461;28;19926;-85
2022/10/11 13:04:25;;;;;;;;;;;;;;;5.13;100.00;100394.72;4955776;28;19973;-85
2022/10/11 13:06:53;;;;;;;;;;;;;;;5.16;100.00;100391.19;4955086;28;19924;-85
2022/10/11 13:09:26;;;;;;;;;;;;;;;5.05;100.00;100386.91;4954612;28;19926;-85
2022/10/11 13:11:54;;;;;;;;;;;;;;;5.13;100.00;100389.47;4972223;28;20362;-86
2022/10/11 13:14:24;;;;;;;;;;;;;;;5.15;100.00;100398.19;4952599;28;19972;-90
2022/10/11 13:16:56;;;;;;;;;;;;;;;5.13;100.00;100391.25;4970807;28;20270;-84
2022/10/11 13:19:22;;;;;;;;;;;;;;;5.22;100.00;100391.13;4970599;28;19922;-85
2022/10/11 13:21:51;;;;;;;;;;;;;;;5.26;100.00;100396.34;4972626;28;19965;-84
2022/10/11 13:24:17;;;;;;;;;;;;;;;5.22;100.00;100388.50;4954162;28;20304;-85
2022/10/11 13:26:44;;;;;;;;;;;;;;;5.15;100.00;100384.19;4967630;28;19938;-83
2022/10/11 13:29:26;;;;;;;;;;;;;;;5.13;100.00;100373.69;4964734;28;19930;-85
2022/10/11 13:31:51;;;;;;;;;;;;;;;5.11;100.00;100374.63;4970662;28;19945;-84
2022/10/11 13:34:17;;;;;;;;;;;;;;;5.13;100.00;100370.22;4971767;28;20341;-85
2022/10/11 13:36:42;;;;;;;;;;;;;;;5.21;100.00;100369.22;4971676;28;20006;-90
2022/10/11 13:39:21;;;;;;;;;;;;;;;5.38;100.00;100370.81;4952950;28;19972;-85
2022/10/11 13:41:47;;;;;;;;;;;;;;;5.18;100.00;100366.63;4972717;28;19922;-85
2022/10/11 13:44:12;;;;;;;;;;;;;;;5.26;100.00;100364.81;4953575;28;19981;-85
2022/10/11 13:46:38;;;;;;;;;;;;;;;5.19;100.00;100368.38;4968914;28;20192;-85
2022/10/11 13:49:07;;;;;;;;;;;;;;;5.18;100.00;100364.00;4972997;28;19957;-88
2022/10/11 13:51:34;;;;;;;;;;;;;;;5.25;100.00;100365.69;4930380;29;20281;-85
2022/10/11 13:54:04;;;;;;;;;;;;;;;5.20;100.00;100362.25;4930546;29;19970;-88
2022/10/11 13:56:33;;;;;;;;;;;;;;;5.17;100.00;100361.41;4916815;29;19931;-85
2022/10/11 13:58:59;;;;;;;;;;;;;;;5.19;100.00;100355.25;4917888;29;19923;-85
2022/10/11 14:01:26;;;;;;;;;;;;;;;5.16;100.00;100355.28;4920170;29;19931;-85
2022/10/11 14:03:59;;;;;;;;;;;;;;;5.11;100.00;100350.97;4918117;29;19923;-85
2022/10/11 14:06:37;;;;;;;;;;;;;;;5.15;100.00;100356.16;4900029;29;20382;-85
2022/10/11 14:09:02;;;;;;;;;;;;;;;5.08;100.00;100351.88;4911201;29;19926;-84
2022/10/11 14:12:04;;;;;;;;;;;;;;;;;;;;;
2022/10/11 14:14:29;;;;;;;;;;;;;;;5.11;100.00;100359.72;4913136;29;19955;-92
2022/10/11 14:16:56;;;;;;;;;;;;;;;5.18;100.00;100352.63;4913875;29;19923;-87
2022/10/11 14:19:25;;;;;;;;;;;;;;;5.15;100.00;100361.41;4897712;29;19923;-88
2022/10/11 14:21:58;;;;;;;;;;;;;;;5.13;100.00;100359.72;4920467;28;19926;-87
2022/10/11 14:24:23;;;;;;;;;;;;;;;5.05;100.00;100354.53;4954815;28;19922;-84
2022/10/11 14:26:50;;;;;;;;;;;;;;;5.17;100.00;100362.28;4950957;28;19923;-85
2022/10/11 14:29:21;;;;;;;;;;;;;;;5.14;100.00;100361.44;4950809;28;19933;-88
2022/10/11 14:31:46;;;;;;;;;;;;;;;5.04;100.00;100356.31;4935916;28;20255;-85
2022/10/11 14:34:19;;;;;;;;;;;;;;;5.13;100.00;100355.31;4955707;28;19926;-84
2022/10/11 14:36:44;;;;;;;;;;;;;;;5.11;100.00;100358.88;4959440;28;19922;-85
2022/10/11 14:39:13;;;;;;;;;;;;;;;5.15;100.00;100353.53;4960833;28;19945;-85
2022/10/11 14:41:38;;;;;;;;;;;;;;;5.14;100.00;100357.06;4957830;28;20045;-85
2022/10/11 14:44:03;;;;;;;;;;;;;;;5.16;100.00;100360.53;4957836;28;20009;-85
2022/10/11 14:46:29;;;;;;;;;;;;;;;5.18;100.00;100350.88;4944193;28;19926;-85
2022/10/11 14:48:54;;;;;;;;;;;;;;;5.21;100.00;100353.47;4941869;28;19925;-85
2022/10/11 14:51:26;;;;;;;;;;;;;;;5.14;100.00;100349.19;4943293;28;19922;-84
2022/10/11 14:53:51;;;;;;;;;;;;;;;5.18;100.00;100353.50;4960286;28;19926;-84
2022/10/11 14:56:17;;;;;;;;;;;;;;;5.12;100.00;100358.81;4965895;28;19922;-84
2022/10/11 14:58:42;;;;;;;;;;;;;;;5.14;100.00;100351.81;4964099;28;20031;-84
2022/10/11 15:01:10;;;;;;;;;;;;;;;5.15;100.00;100350.91;4944770;28;19966;-85
2022/10/11 15:03:35;;;;;;;;;;;;;;;5.14;100.00;100357.06;4964994;28;19918;-84
2022/10/11 15:06:00;;;;;;;;;;;;;;;5.17;100.00;100349.16;4944312;28;20045;-84
2022/10/11 15:08:26;;;;;;;;;;;;;;;5.24;100.00;100349.94;4944122;28;19976;-87
2022/10/11 15:10:52;;;;;;;;;;;;;;;5.27;100.00;100349.91;4946905;28;19926;-84
2022/10/11 15:13:17;;;;;;;;;;;;;;;5.19;100.00;100342.13;4962581;28;19922;-84
2022/10/11 15:15:42;;;;;;;;;;;;;;;6.33;100.00;100342.28;4962170;28;19934;-84
2022/10/11 15:18:16;;;;;;;;;;;;;;;6.36;100.00;100339.59;4961551;28;19922;-91
2022/10/11 15:20:47;;;;;;;;;;;;;;;5.70;100.00;100340.59;4948300;28;19922;-92
2022/10/11 15:23:24;;;;;;;;;;;;;;;5.41;100.00;100333.97;4945817;28;20337;-88
2022/10/11 15:26:10;;;;;;;;;;;;;;;5.43;100.00;100334.81;4948063;28;19923;-86
2022/10/11 15:28:35;;;;;;;;;;;;;;;5.41;100.00;100332.22;4963808;28;19926;-87
2022/10/11 15:31:13;;;;;;;;;;;;;;;;;;;;;
2022/10/11 15:33:41;;;;;;;;;;;;;;;5.27;100.00;100332.38;4964660;28;19932;-88
2022/10/11 15:36:13;;;;;;;;;;;;;;;5.22;100.00;100338.59;4922659;29;19927;-90
2022/10/11 15:38:39;;;;;;;;;;;;;;;5.25;100.00;100334.16;4922192;29;19927;-87
2022/10/11 15:41:07;;;;;;;;;;;;;;;5.27;100.00;100334.13;4906250;29;20009;-90
2022/10/11 15:43:33;;;;;;;;;;;;;;;5.16;100.00;100331.63;4921974;29;19930;-90
2022/10/11 15:45:58;;;;;;;;;;;;;;;5.18;100.00;100332.47;4920697;29;19926;-84
2022/10/11 15:48:25;;;;;;;;;;;;;;;5.15;100.00;100332.50;4927435;29;19923;-91
2022/10/11 15:50:50;;;;;;;;;;;;;;;5.17;100.00;100325.50;4906112;29;20009;-86
2022/10/11 15:53:20;;;;;;;;;;;;;;;5.15;100.00;100326.41;4923686;29;20021;-88
2022/10/11 15:55:46;;;;;;;;;;;;;;;5.13;100.00;100326.41;4907638;29;19938;-92
2022/10/11 15:58:15;;;;;;;;;;;;;;;5.09;100.00;100324.72;4925863;29;20397;-85
2022/10/11 16:01:05;;;;;;;;;;;;;;;5.07;100.00;100329.13;4921400;29;19920;-87
2022/10/11 16:03:31;;;;;;;;;;;;;;;5.06;100.00;100337.91;4924275;29;20013;-88
2022/10/11 16:05:59;;;;;;;;;;;;;;;5.04;100.00;100334.41;4925460;28;19923;-88
2022/10/11 16:08:25;;;;;;;;;;;;;;;5.03;100.00;100343.19;4963258;28;20048;-89
2022/10/11 16:10:51;;;;;;;;;;;;;;;5.04;100.00;100339.66;4965173;28;20013;-87
2022/10/11 16:13:17;;;;;;;;;;;;;;;4.98;100.00;100345.88;4965136;28;19922;-87
2022/10/11 16:15:43;;;;;;;;;;;;;;;4.95;100.00;100338.00;4948067;28;19969;-88
2022/10/11 16:18:19;;;;;;;;;;;;;;;;;;;;;
2022/10/11 16:20:51;;;;;;;;;;;;;;;4.98;100.00;100342.34;4963956;28;19919;-88
2022/10/11 16:23:17;;;;;;;;;;;;;;;4.99;100.00;100341.47;4962955;28;19961;-87
2022/10/11 16:25:42;;;;;;;;;;;;;;;4.91;100.00;100345.06;4964438;28;19968;-88
2022/10/11 16:28:13;;;;;;;;;;;;;;;4.90;100.00;100343.31;4944993;28;19926;-88
2022/10/11 16:30:41;;;;;;;;;;;;;;;4.93;100.00;100338.91;4963180;28;19926;-87
2022/10/11 16:33:07;;;;;;;;;;;;;;;4.96;100.00;100346.75;4945196;28;20409;-87
2022/10/11 16:35:32;;;;;;;;;;;;;;;4.91;100.00;100336.28;4947269;28;19965;-88
2022/10/11 16:37:57;;;;;;;;;;;;;;;4.95;100.00;100343.25;4946816;28;20421;-87
2022/10/11 16:40:25;;;;;;;;;;;;;;;4.98;100.00;100343.25;4946141;28;20286;-88
2022/10/11 16:42:53;;;;;;;;;;;;;;;4.98;100.00;100348.50;4947456;28;19922;-86
2022/10/11 16:45:18;;;;;;;;;;;;;;;4.99;100.00;100338.84;4923443;29;20387;-88
2022/10/11 16:47:46;;;;;;;;;;;;;;;4.99;100.00;100346.72;4908168;29;19923;-89
2022/10/11 16:50:12;;;;;;;;;;;;;;;5.02;100.00;100347.53;4907859;29;19939;-87
2022/10/11 16:52:47;;;;;;;;;;;;;;;4.98;100.00;100344.97;4910539;29;19919;-88
2022/10/11 16:55:12;;;;;;;;;;;;;;;5.00;100.00;100353.72;4921784;29;19923;-88
2022/10/11 16:57:38;;;;;;;;;;;;;;;4.98;100.00;100345.88;4922869;29;19938;-88
2022/10/11 17:00:07;;;;;;;;;;;;;;;4.98;100.00;100351.13;4907666;29;19915;-86
2022/10/11 17:02:32;;;;;;;;;;;;;;;4.99;100.00;100351.97;4923421;29;19942;-87
2022/10/11 17:04:58;;;;;;;;;;;;;;;4.94;100.00;100346.78;4923912;29;20089;-86
2022/10/11 17:07:23;;;;;;;;;;;;;;;4.96;100.00;100349.38;4906024;29;19919;-87
2022/10/11 17:09:58;;;;;;;;;;;;;;;4.95;100.00;100345.03;4942241;28;19930;-87
2022/10/11 17:12:35;;;;;;;;;;;;;;;4.94;100.00;100343.28;4963936;28;19929;-88
2022/10/11 17:15:01;;;;;;;;;;;;;;;4.91;100.00;100352.94;4962008;28;19922;-87
2022/10/11 17:17:26;;;;;;;;;;;;;;;4.90;100.00;100350.34;4941800;28;19919;-87
2022/10/11 17:19:54;;;;;;;;;;;;;;;4.91;100.00;100352.94;4963119;28;19969;-87
2022/10/11 17:22:22;;;;;;;;;;;;;;;4.88;100.00;100365.22;4962940;28;19929;-87
2022/10/11 17:24:47;;;;;;;;;;;;;;;4.86;100.00;100361.75;4963177;28;19954;-87
2022/10/11 17:27:12;;;;;;;;;;;;;;;4.86;100.00;100354.72;4963992;28;19965;-87
2022/10/11 17:29:38;;;;;;;;;;;;;;;4.85;100.00;100350.38;4962516;28;19968;-86
2022/10/11 17:32:06;;;;;;;;;;;;;;;4.83;100.00;100360.00;4963255;28;19922;-88
2022/10/11 17:34:32;;;;;;;;;;;;;;;4.87;100.00;100359.09;4963698;28;19931;-88
2022/10/11 17:36:57;;;;;;;;;;;;;;;4.86;100.00;100357.34;4954289;28;19973;-87
2022/10/11 17:39:22;;;;;;;;;;;;;;;4.82;100.00;100366.16;4962280;28;19929;-86
2022/10/11 17:41:51;;;;;;;;;;;;;;;4.80;100.00;100365.28;4954236;28;19925;-90
2022/10/11 17:44:17;;;;;;;;;;;;;;;4.84;100.00;100372.25;4945970;28;19922;-83
2022/10/11 17:46:49;;;;;;;;;;;;;;;4.85;100.00;100367.88;4963512;28;20012;-88
2022/10/11 17:49:15;;;;;;;;;;;;;;;4.84;100.00;100374.03;4963135;28;19941;-84
2022/10/11 17:51:41;;;;;;;;;;;;;;;4.81;100.00;100367.03;4944956;28;20365;-86
2022/10/11 17:54:11;;;;;;;;;;;;;;;4.80;100.00;100373.16;4961898;28;19929;-87
2022/10/11 17:56:36;;;;;;;;;;;;;;;4.82;100.00;100370.53;4946278;28;20432;-86
2022/10/11 17:59:01;;;;;;;;;;;;;;;4.83;100.00;100373.13;4961970;28;19929;-86
2022/10/11 18:01:27;;;;;;;;;;;;;;;4.78;100.00;100369.69;4962304;28;19984;-89
2022/10/11 18:04:03;;;;;;;;;;;;;;;4.80;100.00;100373.16;4962963;28;19919;-87
2022/10/11 18:06:29;;;;;;;;;;;;;;;4.80;100.00;100374.94;4945766;28;19925;-89
2022/10/11 18:08:58;;;;;;;;;;;;;;;4.76;100.00;100371.47;4944579;28;19922;-88
2022/10/11 18:11:26;;;;;;;;;;;;;;;4.79;100.00;100371.44;4962212;28;19919;-88
2022/10/11 18:13:54;;;;;;;;;;;;;;;4.80;100.00;100370.53;4946716;28;20374;-88
2022/10/11 18:16:20;;;;;;;;;;;;;;;4.77;100.00;100367.97;4961718;28;19930;-87
2022/10/11 18:18:46;;;;;;;;;;;;;;;4.81;100.00;100369.66;4945230;28;19922;-89
2022/10/11 18:21:12;;;;;;;;;;;;;;;4.80;100.00;100365.28;4946252;28;19933;-85
2022/10/11 18:23:40;;;;;;;;;;;;;;;4.78;100.00;100369.69;4959377;28;19957;-87
2022/10/11 18:26:13;;;;;;;;;;;;;;;4.83;100.00;100382.78;4959372;28;20358;-86
2022/10/11 18:28:39;;;;;;;;;;;;;;;4.78;100.00;100380.19;4966489;28;19930;-89
2022/10/11 18:31:06;;;;;;;;;;;;;;;4.82;100.00;100379.28;4948659;28;20022;-88
2022/10/11 18:33:35;;;;;;;;;;;;;;;4.82;100.00;100386.28;4966886;28;19973;-88
2022/10/11 18:36:03;;;;;;;;;;;;;;;4.79;100.00;100384.56;4966322;28;20013;-87
2022/10/11 18:38:28;;;;;;;;;;;;;;;4.80;100.00;100383.66;4965874;28;19976;-87
2022/10/11 18:40:53;;;;;;;;;;;;;;;4.80;100.00;100386.28;4949200;28;20366;-88